Time;durP1;ratioP1;P1;durP2;ratioP2;P2;SDS_P1;SDS_P2;PMS_P1;PMS_P2;Temp;Humidity;BMP_temperature;BMP_pressure;BME280_temperature;BME280_humidity;BME280_pressure;Samples;Min_cycle;Max_cycle;Signal;HPM_P1;HPM_P2
2021/10/06 00:02:00;;;;;;;0.50;0.20;;;;;;;;;;4877397;29;20045;-71
2021/10/06 00:04:27;;;;;;;1.10;0.50;;;;;;;;;;4860275;29;20467;-71
2021/10/06 00:06:54;;;;;;;0.75;0.30;;;;;;;;;;4876154;29;20778;-71
2021/10/06 00:09:22;;;;;;;0.65;0.35;;;;;;;;;;4852565;29;20120;-71
2021/10/06 00:11:49;;;;;;;0.75;0.30;;;;;;;;;;4875351;29;20114;-71
2021/10/06 00:14:21;;;;;;;1.08;0.40;;;;;;;;;;4877188;29;20041;-71
2021/10/06 00:16:51;;;;;;;1.25;0.40;;;;;;;;;;4867375;29;20156;-71
2021/10/06 00:19:19;;;;;;;2.42;0.50;;;;;;;;;;4868703;29;20057;-74
2021/10/06 00:21:46;;;;;;;1.55;0.93;;;;;;;;;;4875438;29;20037;-71
2021/10/06 00:24:13;;;;;;;1.67;0.82;;;;;;;;;;4869091;29;20112;-71
2021/10/06 00:26:41;;;;;;;1.70;0.82;;;;;;;;;;4844505;29;20044;-71
2021/10/06 00:29:08;;;;;;;1.10;0.60;;;;;;;;;;4875248;29;20045;-71
2021/10/06 00:31:35;;;;;;;1.65;0.50;;;;;;;;;;4872561;29;20416;-71
2021/10/06 00:34:03;;;;;;;2.47;0.93;;;;;;;;;;4862764;29;20048;-71
2021/10/06 00:36:30;;;;;;;2.17;1.20;;;;;;;;;;4845922;29;20057;-71
2021/10/06 00:38:58;;;;;;;1.80;0.73;;;;;;;;;;4874576;29;20051;-71
2021/10/06 00:41:25;;;;;;;1.63;0.70;;;;;;;;;;4869922;29;20128;-71
2021/10/06 00:43:52;;;;;;;2.40;0.68;;;;;;;;;;4875766;29;20061;-71
2021/10/06 00:46:20;;;;;;;2.55;0.55;;;;;;;;;;4876122;29;20120;-71
2021/10/06 00:48:48;;;;;;;1.05;0.50;;;;;;;;;;4843624;29;20144;-71
2021/10/06 00:51:17;;;;;;;1.50;0.65;;;;;;;;;;4875037;29;20494;-71
2021/10/06 00:53:44;;;;;;;1.25;0.40;;;;;;;;;;4857965;29;20055;-72
2021/10/06 00:56:11;;;;;;;1.42;0.60;;;;;;;;;;4873921;29;20048;-71
2021/10/06 00:58:39;;;;;;;0.73;0.30;;;;;;;;;;4847674;29;20051;-71
2021/10/06 01:01:06;;;;;;;2.00;0.40;;;;;;;;;;4878363;29;20041;-71
2021/10/06 01:03:34;;;;;;;1.27;0.40;;;;;;;;;;4855694;29;20049;-71
2021/10/06 01:06:01;;;;;;;0.77;0.40;;;;;;;;;;4873966;29;20485;-72
2021/10/06 01:08:29;;;;;;;1.00;0.35;;;;;;;;;;4857007;29;20489;-71
2021/10/06 01:10:56;;;;;;;0.85;0.40;;;;;;;;;;4875043;29;20069;-71
2021/10/06 01:13:23;;;;;;;1.05;0.30;;;;;;;;;;4874201;29;20127;-72
2021/10/06 01:15:51;;;;;;;1.23;0.50;;;;;;;;;;4874376;29;20123;-72
2021/10/06 01:18:19;;;;;;;1.38;0.68;;;;;;;;;;4864434;29;20121;-71
2021/10/06 01:20:46;;;;;;;2.70;0.47;;;;;;;;;;4861832;29;20447;-72
2021/10/06 01:23:17;;;;;;;2.15;0.40;;;;;;;;;;4863181;29;20119;-71
2021/10/06 01:25:44;;;;;;;0.82;0.30;;;;;;;;;;4864694;29;20041;-72
2021/10/06 01:28:11;;;;;;;0.60;0.20;;;;;;;;;;4863071;29;20051;-71
2021/10/06 01:30:39;;;;;;;3.58;0.50;;;;;;;;;;4880954;29;20119;-71
2021/10/06 01:33:06;;;;;;;1.38;0.30;;;;;;;;;;4855899;29;20136;-71
2021/10/06 01:35:37;;;;;;;3.63;0.60;;;;;;;;;;4866702;29;20058;-71
2021/10/06 01:38:04;;;;;;;1.15;0.40;;;;;;;;;;4876291;29;20123;-71
2021/10/06 01:40:32;;;;;;;2.55;0.60;;;;;;;;;;4877934;29;20044;-71
2021/10/06 01:42:59;;;;;;;2.97;1.00;;;;;;;;;;4880142;29;20716;-71
2021/10/06 01:45:28;;;;;;;1.77;0.70;;;;;;;;;;4878243;29;20108;-72
2021/10/06 01:48:03;;;;;;;2.03;0.55;;;;;;;;;;4880760;29;20464;-71
2021/10/06 01:50:30;;;;;;;1.92;0.40;;;;;;;;;;4860333;29;20141;-71
2021/10/06 01:52:58;;;;;;;1.38;0.40;;;;;;;;;;4863914;29;20048;-72
2021/10/06 01:55:28;;;;;;;0.75;0.30;;;;;;;;;;4877671;29;20053;-71
2021/10/06 01:57:56;;;;;;;2.33;0.30;;;;;;;;;;4881809;29;20149;-71
2021/10/06 02:00:24;;;;;;;2.08;0.63;;;;;;;;;;4878283;29;20057;-71
2021/10/06 02:02:52;;;;;;;2.88;0.30;;;;;;;;;;4857994;29;20049;-72
2021/10/06 02:05:21;;;;;;;2.15;0.28;;;;;;;;;;4871758;29;20056;-71
2021/10/06 02:07:48;;;;;;;0.63;0.30;;;;;;;;;;4873961;29;20663;-72
2021/10/06 02:10:16;;;;;;;1.15;0.20;;;;;;;;;;4877243;29;20089;-71
2021/10/06 02:12:43;;;;;;;2.55;0.30;;;;;;;;;;4879606;29;20140;-71
2021/10/06 02:15:11;;;;;;;0.70;0.22;;;;;;;;;;4839652;29;20389;-72
2021/10/06 02:17:38;;;;;;;1.50;0.50;;;;;;;;;;4878454;29;20164;-71
2021/10/06 02:20:07;;;;;;;1.38;0.45;;;;;;;;;;4862214;29;20256;-71
2021/10/06 02:22:34;;;;;;;1.67;0.30;;;;;;;;;;4861467;29;20057;-71
2021/10/06 02:25:02;;;;;;;0.93;0.20;;;;;;;;;;4881511;29;20041;-72
2021/10/06 02:27:29;;;;;;;0.80;0.38;;;;;;;;;;4886486;29;20079;-72
2021/10/06 02:29:57;;;;;;;3.08;0.30;;;;;;;;;;4881185;29;20455;-72
2021/10/06 02:32:24;;;;;;;1.08;0.30;;;;;;;;;;4865665;29;20056;-72
2021/10/06 02:34:51;;;;;;;2.08;0.40;;;;;;;;;;4880148;29;20060;-72
2021/10/06 02:37:19;;;;;;;3.35;0.57;;;;;;;;;;4853282;29;20136;-72
2021/10/06 02:39:46;;;;;;;2.65;0.45;;;;;;;;;;4863646;29;20143;-72
2021/10/06 02:42:13;;;;;;;1.67;0.40;;;;;;;;;;4881379;29;20041;-72
2021/10/06 02:44:41;;;;;;;1.98;0.65;;;;;;;;;;4877899;29;20482;-72
2021/10/06 02:47:08;;;;;;;1.95;0.30;;;;;;;;;;4861983;29;20116;-72
2021/10/06 02:49:36;;;;;;;1.52;0.30;;;;;;;;;;4852164;29;20137;-72
2021/10/06 02:52:04;;;;;;;1.30;0.35;;;;;;;;;;4860199;29;20045;-72
2021/10/06 02:54:31;;;;;;;2.22;0.40;;;;;;;;;;4874078;29;20045;-72
2021/10/06 02:57:01;;;;;;;3.55;0.40;;;;;;;;;;4880373;29;20076;-72
2021/10/06 02:59:29;;;;;;;3.35;0.50;;;;;;;;;;4880064;29;20072;-72
2021/10/06 03:01:56;;;;;;;2.22;0.70;;;;;;;;;;4878960;29;20048;-72
2021/10/06 03:04:24;;;;;;;4.05;1.00;;;;;;;;;;4880562;29;20482;-72
2021/10/06 03:06:52;;;;;;;4.85;1.48;;;;;;;;;;4875670;29;20139;-72
2021/10/06 03:09:20;;;;;;;1.33;0.50;;;;;;;;;;4878448;29;20053;-72
2021/10/06 03:11:47;;;;;;;1.05;0.50;;;;;;;;;;4875997;29;20053;-72
2021/10/06 03:14:15;;;;;;;1.30;0.40;;;;;;;;;;4877380;29;20131;-72
2021/10/06 03:16:42;;;;;;;1.55;0.40;;;;;;;;;;4876223;29;20521;-72
2021/10/06 03:19:09;;;;;;;1.30;0.50;;;;;;;;;;4864880;29;20061;-72
2021/10/06 03:21:37;;;;;;;1.52;0.55;;;;;;;;;;4872598;29;20042;-72
2021/10/06 03:24:04;;;;;;;1.65;0.40;;;;;;;;;;4879256;29;20140;-72
2021/10/06 03:26:32;;;;;;;4.05;0.57;;;;;;;;;;4856353;29;20072;-71
2021/10/06 03:28:59;;;;;;;2.47;0.50;;;;;;;;;;4877297;29;20120;-72
2021/10/06 03:31:26;;;;;;;1.45;0.50;;;;;;;;;;4862128;29;20101;-72
2021/10/06 03:33:54;;;;;;;1.67;0.77;;;;;;;;;;4872118;29;20051;-72
2021/10/06 03:36:21;;;;;;;2.38;0.70;;;;;;;;;;4859672;29;20432;-72
2021/10/06 03:38:49;;;;;;;1.23;0.40;;;;;;;;;;4860877;29;20060;-72
2021/10/06 03:41:16;;;;;;;0.80;0.35;;;;;;;;;;4874492;29;20044;-72
2021/10/06 03:43:43;;;;;;;4.53;0.50;;;;;;;;;;4878108;29;20144;-72
2021/10/06 03:46:11;;;;;;;3.58;0.70;;;;;;;;;;4858913;29;21645;-73
2021/10/06 03:48:38;;;;;;;5.40;1.55;;;;;;;;;;4862548;29;20037;-72
2021/10/06 03:51:05;;;;;;;2.85;0.55;;;;;;;;;;4872372;29;20037;-72
2021/10/06 03:53:33;;;;;;;3.72;0.80;;;;;;;;;;4854811;29;20128;-75
2021/10/06 03:56:00;;;;;;;1.88;0.55;;;;;;;;;;4867938;29;20047;-76
2021/10/06 03:58:28;;;;;;;0.93;0.50;;;;;;;;;;4874138;29;20397;-75
2021/10/06 04:00:55;;;;;;;0.80;0.40;;;;;;;;;;4843295;29;20514;-76
2021/10/06 04:03:22;;;;;;;0.85;0.40;;;;;;;;;;4856852;29;20040;-75
2021/10/06 04:05:50;;;;;;;2.00;0.50;;;;;;;;;;4869688;29;20049;-76
2021/10/06 04:08:17;;;;;;;1.58;0.45;;;;;;;;;;4867759;29;20097;-75
2021/10/06 04:10:45;;;;;;;1.00;0.45;;;;;;;;;;4866332;29;20125;-76
2021/10/06 04:13:12;;;;;;;2.08;0.50;;;;;;;;;;4854902;29;20050;-76
2021/10/06 04:15:39;;;;;;;1.33;0.40;;;;;;;;;;4862264;29;20129;-77
2021/10/06 04:18:07;;;;;;;2.30;0.43;;;;;;;;;;4859442;29;20497;-78
2021/10/06 04:20:34;;;;;;;2.90;1.17;;;;;;;;;;4865599;29;20118;-79
2021/10/06 04:23:02;;;;;;;2.45;0.52;;;;;;;;;;4866538;29;20060;-79
2021/10/06 04:25:29;;;;;;;0.68;0.22;;;;;;;;;;4868392;29;20502;-77
2021/10/06 04:27:56;;;;;;;0.88;0.30;;;;;;;;;;4869163;29;20065;-78
2021/10/06 04:30:24;;;;;;;0.80;0.30;;;;;;;;;;4870107;29;20559;-78
2021/10/06 04:32:51;;;;;;;1.42;0.28;;;;;;;;;;4872399;29;20132;-78
2021/10/06 04:35:18;;;;;;;0.45;0.30;;;;;;;;;;4870364;29;20076;-78
2021/10/06 04:37:46;;;;;;;2.05;0.30;;;;;;;;;;4854116;29;20077;-77
2021/10/06 04:40:13;;;;;;;0.32;0.20;;;;;;;;;;4858181;29;20526;-77
2021/10/06 04:42:42;;;;;;;1.40;0.30;;;;;;;;;;4873851;29;20379;-78
2021/10/06 04:45:10;;;;;;;2.35;0.50;;;;;;;;;;4855588;29;20093;-77
2021/10/06 04:47:38;;;;;;;1.95;0.50;;;;;;;;;;4854154;29;20041;-76
2021/10/06 04:50:06;;;;;;;0.85;0.50;;;;;;;;;;4852509;29;20073;-76
2021/10/06 04:52:33;;;;;;;1.52;0.75;;;;;;;;;;4876002;29;20131;-76
2021/10/06 04:55:00;;;;;;;2.58;0.70;;;;;;;;;;4872167;29;20076;-75
2021/10/06 04:57:28;;;;;;;1.92;0.50;;;;;;;;;;4868896;29;20049;-76
2021/10/06 04:59:55;;;;;;;2.17;0.47;;;;;;;;;;4874430;29;20093;-76
2021/10/06 05:02:22;;;;;;;0.95;0.50;;;;;;;;;;4877063;29;20116;-75
2021/10/06 05:04:49;;;;;;;0.73;0.40;;;;;;;;;;4871672;29;20045;-76
2021/10/06 05:07:17;;;;;;;0.98;0.40;;;;;;;;;;4859217;29;20050;-75
2021/10/06 05:09:44;;;;;;;2.55;0.57;;;;;;;;;;4868312;29;20134;-76
2021/10/06 05:12:11;;;;;;;2.13;0.70;;;;;;;;;;4875893;29;20124;-75
2021/10/06 05:14:39;;;;;;;1.20;0.65;;;;;;;;;;4877346;29;20053;-76
2021/10/06 05:17:06;;;;;;;2.65;0.70;;;;;;;;;;4879844;29;20068;-75
2021/10/06 05:19:33;;;;;;;4.18;1.20;;;;;;;;;;4878300;29;20058;-76
2021/10/06 05:22:02;;;;;;;2.35;0.80;;;;;;;;;;4869118;29;20053;-76
2021/10/06 05:24:29;;;;;;;2.25;0.77;;;;;;;;;;4874279;29;20041;-75
2021/10/06 05:26:57;;;;;;;2.85;0.90;;;;;;;;;;4877846;29;20573;-75
2021/10/06 05:29:24;;;;;;;1.00;0.63;;;;;;;;;;4879949;29;20049;-76
2021/10/06 05:31:51;;;;;;;1.70;0.65;;;;;;;;;;4844811;29;20047;-75
2021/10/06 05:34:19;;;;;;;1.83;0.60;;;;;;;;;;4865983;29;20116;-75
2021/10/06 05:36:46;;;;;;;2.65;0.90;;;;;;;;;;4860966;29;20029;-75
2021/10/06 05:39:13;;;;;;;2.47;0.90;;;;;;;;;;4874024;29;20514;-76
2021/10/06 05:41:41;;;;;;;2.60;0.80;;;;;;;;;;4878646;29;20124;-75
2021/10/06 05:44:08;;;;;;;2.38;0.55;;;;;;;;;;4845365;29;21362;-75
2021/10/06 05:46:35;;;;;;;2.70;1.13;;;;;;;;;;4856078;29;20116;-74
2021/10/06 05:49:03;;;;;;;2.45;0.80;;;;;;;;;;4871108;29;20041;-75
2021/10/06 05:51:31;;;;;;;3.90;1.10;;;;;;;;;;4869370;29;20041;-75
2021/10/06 05:53:58;;;;;;;5.53;1.67;;;;;;;;;;4873991;29;20069;-75
2021/10/06 05:56:26;;;;;;;3.85;1.00;;;;;;;;;;4856822;29;20056;-75
2021/10/06 05:58:53;;;;;;;5.25;1.50;;;;;;;;;;4874046;29;20045;-75
2021/10/06 06:01:21;;;;;;;2.60;0.82;;;;;;;;;;4877061;29;20131;-74
2021/10/06 06:03:48;;;;;;;2.67;0.80;;;;;;;;;;4862171;29;20053;-75
2021/10/06 06:06:15;;;;;;;3.70;1.27;;;;;;;;;;4862628;29;20072;-75
2021/10/06 06:08:43;;;;;;;3.45;1.08;;;;;;;;;;4854523;29;20041;-75
2021/10/06 06:11:10;;;;;;;3.38;0.93;;;;;;;;;;4873423;29;20072;-76
2021/10/06 06:13:37;;;;;;;2.45;0.70;;;;;;;;;;4875403;29;20049;-76
2021/10/06 06:16:05;;;;;;;3.90;1.20;;;;;;;;;;4875182;29;20045;-75
2021/10/06 06:18:33;;;;;;;3.90;0.85;;;;;;;;;;4855903;29;20126;-76
2021/10/06 06:21:00;;;;;;;2.40;1.02;;;;;;;;;;4873033;29;20118;-77
2021/10/06 06:23:29;;;;;;;3.13;1.20;;;;;;;;;;4844406;29;20072;-78
2021/10/06 06:25:57;;;;;;;2.38;1.40;;;;;;;;;;4861716;29;20448;-76
2021/10/06 06:28:24;;;;;;;2.90;1.17;;;;;;;;;;4858360;29;20476;-75
2021/10/06 06:30:51;;;;;;;3.35;1.63;;;;;;;;;;4860695;29;20892;-75
2021/10/06 06:33:19;;;;;;;4.30;1.33;;;;;;;;;;4861212;29;20102;-77
2021/10/06 06:35:46;;;;;;;3.55;1.20;;;;;;;;;;4853328;29;20054;-77
2021/10/06 06:38:14;;;;;;;2.88;0.80;;;;;;;;;;4859792;29;20053;-75
2021/10/06 06:40:41;;;;;;;2.13;0.90;;;;;;;;;;4859565;29;20065;-78
2021/10/06 06:43:12;;;;;;;1.88;0.88;;;;;;;;;;4857229;29;20046;-79
2021/10/06 06:45:39;;;;;;;3.95;1.52;;;;;;;;;;4859703;29;20436;-78
2021/10/06 06:48:07;;;;;;;3.45;1.38;;;;;;;;;;4861707;29;20038;-77
2021/10/06 06:50:45;;;;;;;2.00;1.08;;;;;;;;;;4859876;29;20048;-75
2021/10/06 06:53:12;;;;;;;2.90;1.23;;;;;;;;;;4863972;29;20049;-75
2021/10/06 06:55:39;;;;;;;1.63;0.88;;;;;;;;;;4859450;29;20573;-75
2021/10/06 06:58:07;;;;;;;1.77;0.93;;;;;;;;;;4859908;29;20046;-77
2021/10/06 07:00:34;;;;;;;3.15;1.30;;;;;;;;;;4863114;29;20105;-77
2021/10/06 07:03:02;;;;;;;2.55;1.13;;;;;;;;;;4866190;29;20132;-77
2021/10/06 07:05:30;;;;;;;1.98;1.30;;;;;;;;;;4860929;29;20044;-76
2021/10/06 07:07:57;;;;;;;4.53;1.30;;;;;;;;;;4864623;29;20153;-75
2021/10/06 07:10:25;;;;;;;1.58;0.98;;;;;;;;;;4859442;29;20041;-76
2021/10/06 07:12:52;;;;;;;2.75;1.33;;;;;;;;;;4859301;29;20037;-75
2021/10/06 07:15:20;;;;;;;2.55;1.08;;;;;;;;;;4859913;29;20045;-77
2021/10/06 07:17:47;;;;;;;2.75;1.10;;;;;;;;;;4844925;29;20137;-77
2021/10/06 07:20:14;;;;;;;1.98;1.10;;;;;;;;;;4850840;29;20132;-77
2021/10/06 07:22:44;;;;;;;4.50;1.20;;;;;;;;;;4857133;29;20088;-77
2021/10/06 07:25:12;;;;;;;1.92;0.90;;;;;;;;;;4860543;29;20041;-78
2021/10/06 07:27:39;;;;;;;1.45;0.70;;;;;;;;;;4859523;29;20117;-78
2021/10/06 07:30:07;;;;;;;2.90;1.17;;;;;;;;;;4843059;29;20073;-73
2021/10/06 07:32:34;;;;;;;2.35;1.05;;;;;;;;;;4856931;29;20063;-74
2021/10/06 07:35:02;;;;;;;1.83;0.93;;;;;;;;;;4857809;29;20045;-75
2021/10/06 07:37:29;;;;;;;2.80;0.90;;;;;;;;;;4857471;29;20037;-75
2021/10/06 07:39:57;;;;;;;1.60;0.80;;;;;;;;;;4858354;29;20057;-74
2021/10/06 07:42:24;;;;;;;1.30;0.65;;;;;;;;;;4858234;29;20053;-75
2021/10/06 07:44:52;;;;;;;1.73;0.60;;;;;;;;;;4857417;29;20054;-75
2021/10/06 07:47:19;;;;;;;2.70;0.70;;;;;;;;;;4855876;29;20124;-75
2021/10/06 07:49:46;;;;;;;1.15;0.40;;;;;;;;;;4859406;29;20061;-75
2021/10/06 07:52:14;;;;;;;1.50;0.82;;;;;;;;;;4843263;29;20128;-75
2021/10/06 07:54:41;;;;;;;3.22;1.20;;;;;;;;;;4859637;29;20073;-75
2021/10/06 07:57:08;;;;;;;1.30;0.52;;;;;;;;;;4859567;29;20053;-73
2021/10/06 07:59:36;;;;;;;2.80;0.80;;;;;;;;;;4856545;29;20045;-74
2021/10/06 08:02:04;;;;;;;1.98;0.93;;;;;;;;;;4842684;29;20041;-74
2021/10/06 08:04:31;;;;;;;2.92;0.60;;;;;;;;;;4858176;29;20045;-73
2021/10/06 08:06:58;;;;;;;1.95;0.70;;;;;;;;;;4859418;29;20400;-74
2021/10/06 08:09:26;;;;;;;1.73;0.50;;;;;;;;;;4842238;29;20386;-75
2021/10/06 08:11:53;;;;;;;1.50;0.63;;;;;;;;;;4858226;29;20049;-74
2021/10/06 08:14:20;;;;;;;1.83;0.50;;;;;;;;;;4841926;29;20075;-74
2021/10/06 08:16:48;;;;;;;1.23;0.40;;;;;;;;;;4861983;29;20579;-74
2021/10/06 08:19:15;;;;;;;0.70;0.50;;;;;;;;;;4859912;29;20061;-74
2021/10/06 08:21:45;;;;;;;1.85;0.80;;;;;;;;;;4860522;29;20140;-75
2021/10/06 08:24:12;;;;;;;1.70;0.95;;;;;;;;;;4876849;29;20033;-74
2021/10/06 08:26:40;;;;;;;0.95;0.50;;;;;;;;;;4864458;29;20075;-74
2021/10/06 08:29:07;;;;;;;1.65;0.75;;;;;;;;;;4869353;29;20068;-74
2021/10/06 08:31:34;;;;;;;2.13;0.95;;;;;;;;;;4884765;29;20049;-74
2021/10/06 08:34:02;;;;;;;1.92;0.85;;;;;;;;;;4881050;29;20048;-74
2021/10/06 08:36:30;;;;;;;1.33;0.52;;;;;;;;;;4877372;29;20115;-74
2021/10/06 08:38:58;;;;;;;2.75;0.90;;;;;;;;;;4860553;29;20107;-74
2021/10/06 08:41:25;;;;;;;3.55;0.90;;;;;;;;;;4867927;29;20136;-74
2021/10/06 08:43:53;;;;;;;2.20;1.15;;;;;;;;;;4861514;29;20562;-73
2021/10/06 08:46:23;;;;;;;2.25;0.82;;;;;;;;;;4848779;29;20045;-74
2021/10/06 08:48:53;;;;;;;1.65;0.70;;;;;;;;;;4860515;29;20045;-73
2021/10/06 08:51:24;;;;;;;1.35;0.70;;;;;;;;;;4877023;29;20123;-73
2021/10/06 08:53:51;;;;;;;2.22;1.17;;;;;;;;;;4859918;29;20049;-73
2021/10/06 08:56:21;;;;;;;1.98;0.82;;;;;;;;;;4876923;29;20048;-74
2021/10/06 08:58:49;;;;;;;1.85;0.70;;;;;;;;;;4876124;29;20045;-72
2021/10/06 09:01:26;;;;;;;2.45;0.93;;;;;;;;;;4876556;29;20053;-73
2021/10/06 09:04:01;;;;;;;1.50;0.82;;;;;;;;;;4859753;29;20033;-72
2021/10/06 09:06:38;;;;;;;1.50;0.40;;;;;;;;;;4862777;29;20547;-72
2021/10/06 09:09:14;;;;;;;1.15;0.60;;;;;;;;;;4860728;29;20467;-81
2021/10/06 09:11:45;;;;;;;0.90;0.50;;;;;;;;;;4860326;29;20045;-82
2021/10/06 09:14:13;;;;;;;1.13;0.60;;;;;;;;;;4845309;29;20060;-81
2021/10/06 09:16:41;;;;;;;2.58;0.82;;;;;;;;;;4835235;29;20660;-81
2021/10/06 09:19:09;;;;;;;0.75;0.45;;;;;;;;;;4840167;29;20068;-79
2021/10/06 09:21:56;;;;;;;1.10;0.60;;;;;;;;;;4858185;29;20054;-80
2021/10/06 09:24:24;;;;;;;0.90;0.43;;;;;;;;;;4857696;29;20069;-82
2021/10/06 09:27:05;;;;;;;1.58;0.55;;;;;;;;;;4842551;29;20049;-80
2021/10/06 09:29:46;;;;;;;0.85;0.50;;;;;;;;;;4857958;29;20037;-81
2021/10/06 09:32:31;;;;;;;2.08;0.70;;;;;;;;;;4851736;29;20057;-80
2021/10/06 09:34:59;;;;;;;1.40;0.70;;;;;;;;;;4858566;29;20054;-75
2021/10/06 09:37:27;;;;;;;1.50;0.77;;;;;;;;;;4858797;29;20050;-75
2021/10/06 09:39:56;;;;;;;1.73;0.70;;;;;;;;;;4854672;29;20048;-75
2021/10/06 09:42:23;;;;;;;1.02;0.57;;;;;;;;;;4860669;29;20083;-75
2021/10/06 09:44:58;;;;;;;1.60;0.80;;;;;;;;;;4856327;29;20124;-75
2021/10/06 09:47:25;;;;;;;1.88;0.50;;;;;;;;;;4854724;29;20069;-76
2021/10/06 09:49:54;;;;;;;3.15;0.60;;;;;;;;;;4852289;29;20535;-78
2021/10/06 09:52:33;;;;;;;1.50;0.60;;;;;;;;;;4844803;29;20411;-76
2021/10/06 09:55:02;;;;;;;1.50;0.50;;;;;;;;;;4860615;29;20049;-73
2021/10/06 09:57:37;;;;;;;1.00;0.50;;;;;;;;;;4849277;29;20046;-71
2021/10/06 10:00:04;;;;;;;0.63;0.40;;;;;;;;;;4860800;29;20783;-73
2021/10/06 10:02:37;;;;;;;1.30;0.40;;;;;;;;;;4851732;29;20054;-71
2021/10/06 10:05:06;;;;;;;0.93;0.35;;;;;;;;;;4858761;29;20037;-72
2021/10/06 10:07:33;;;;;;;0.50;0.30;;;;;;;;;;4839377;29;20041;-72
2021/10/06 10:10:01;;;;;;;0.68;0.30;;;;;;;;;;4859731;29;20045;-71
2021/10/06 10:12:28;;;;;;;0.43;0.30;;;;;;;;;;4860002;29;20549;-72
2021/10/06 10:14:56;;;;;;;0.60;0.30;;;;;;;;;;4855869;29;20050;-72
2021/10/06 10:17:25;;;;;;;1.13;0.40;;;;;;;;;;4854240;29;20042;-72
2021/10/06 10:19:55;;;;;;;2.78;0.40;;;;;;;;;;4870051;29;20057;-71
2021/10/06 10:22:22;;;;;;;1.17;0.38;;;;;;;;;;4877938;29;20135;-71
2021/10/06 10:24:51;;;;;;;2.17;0.50;;;;;;;;;;4855657;29;20825;-73
2021/10/06 10:27:22;;;;;;;1.17;0.50;;;;;;;;;;4875752;29;20080;-72
2021/10/06 10:29:52;;;;;;;1.00;0.40;;;;;;;;;;4871640;29;20498;-75
2021/10/06 10:32:29;;;;;;;1.42;0.50;;;;;;;;;;4859746;29;20046;-76
2021/10/06 10:34:58;;;;;;;1.00;0.55;;;;;;;;;;4864839;29;20498;-76
2021/10/06 10:37:44;;;;;;;1.35;0.40;;;;;;;;;;4859833;29;20120;-73
2021/10/06 10:40:35;;;;;;;1.02;0.60;;;;;;;;;;4854652;29;20061;-75
2021/10/06 10:43:06;;;;;;;1.00;0.38;;;;;;;;;;4853510;29;20057;-74
2021/10/06 10:45:52;;;;;;;2.40;0.70;;;;;;;;;;4873544;29;20482;-74
2021/10/06 10:48:22;;;;;;;0.98;0.50;;;;;;;;;;4868653;29;20041;-73
2021/10/06 10:50:49;;;;;;;2.58;0.60;;;;;;;;;;4876419;29;20045;-72
2021/10/06 10:53:21;;;;;;;2.58;0.70;;;;;;;;;;4873583;29;20538;-74
2021/10/06 10:55:55;;;;;;;3.75;1.45;;;;;;;;;;4877439;29;20060;-73
2021/10/06 10:58:27;;;;;;;1.95;0.70;;;;;;;;;;4860360;29;20057;-73
2021/10/06 11:00:55;;;;;;;1.43;0.50;;;;;;;;;;4861064;29;20068;-74
2021/10/06 11:03:23;;;;;;;1.83;0.60;;;;;;;;;;4878004;29;20319;-74
2021/10/06 11:05:52;;;;;;;0.85;0.40;;;;;;;;;;4877260;29;20041;-70
2021/10/06 11:08:24;;;;;;;2.08;0.47;;;;;;;;;;4860355;29;20048;-71
2021/10/06 11:11:11;;;;;;;4.28;0.45;;;;;;;;;;4872544;29;20639;-71
2021/10/06 11:13:38;;;;;;;1.17;0.25;;;;;;;;;;4877973;29;20447;-71
2021/10/06 11:16:06;;;;;;;3.70;0.50;;;;;;;;;;4877721;29;20132;-71
2021/10/06 11:18:58;;;;;;;4.10;0.60;;;;;;;;;;4858560;29;20084;-71
2021/10/06 11:21:31;;;;;;;3.78;0.50;;;;;;;;;;4857141;29;20049;-72
2021/10/06 11:23:59;;;;;;;0.75;0.28;;;;;;;;;;4854082;29;20050;-73
2021/10/06 11:26:32;;;;;;;1.48;0.70;;;;;;;;;;4857316;29;20402;-71
2021/10/06 11:29:01;;;;;;;1.20;0.30;;;;;;;;;;4858488;29;20049;-72
2021/10/06 11:31:30;;;;;;;1.40;0.40;;;;;;;;;;4859377;29;20121;-71
2021/10/06 11:33:58;;;;;;;2.40;0.40;;;;;;;;;;4858171;29;20123;-71
2021/10/06 11:36:26;;;;;;;0.98;0.28;;;;;;;;;;4857987;29;20125;-71
2021/10/06 11:38:58;;;;;;;1.73;0.20;;;;;;;;;;4858810;29;20124;-72
2021/10/06 11:41:26;;;;;;;0.47;0.25;;;;;;;;;;4857688;29;20081;-71
2021/10/06 11:43:54;;;;;;;0.93;0.30;;;;;;;;;;4858795;29;20090;-71
2021/10/06 11:46:26;;;;;;;4.05;0.30;;;;;;;;;;4854798;29;20037;-71
2021/10/06 11:48:55;;;;;;;2.70;0.50;;;;;;;;;;4857941;29;20046;-71
2021/10/06 11:51:36;;;;;;;1.42;0.50;;;;;;;;;;4858258;29;20097;-71
2021/10/06 11:54:03;;;;;;;0.63;0.20;;;;;;;;;;4857837;29;20105;-71
2021/10/06 11:56:32;;;;;;;1.67;0.30;;;;;;;;;;4855618;29;20053;-71
2021/10/06 11:59:09;;;;;;;2.42;0.40;;;;;;;;;;4853788;29;20079;-71
2021/10/06 12:01:37;;;;;;;3.03;0.43;;;;;;;;;;4857227;29;20049;-70
2021/10/06 12:04:12;;;;;;;2.20;0.40;;;;;;;;;;4857473;29;20052;-71
2021/10/06 12:06:41;;;;;;;1.02;0.35;;;;;;;;;;4855287;29;20505;-72
2021/10/06 12:09:09;;;;;;;0.88;0.22;;;;;;;;;;4860183;29;20492;-71
2021/10/06 12:11:38;;;;;;;0.70;0.40;;;;;;;;;;4854457;29;20137;-71
2021/10/06 12:14:17;;;;;;;2.03;0.30;;;;;;;;;;4855111;29;20057;-71
2021/10/06 12:16:44;;;;;;;2.22;0.40;;;;;;;;;;4851948;29;20105;-71
2021/10/06 12:19:21;;;;;;;1.08;0.40;;;;;;;;;;4860115;29;20048;-72
2021/10/06 12:21:48;;;;;;;3.30;0.55;;;;;;;;;;4869420;29;20051;-71
2021/10/06 12:24:20;;;;;;;1.08;0.30;;;;;;;;;;4873816;29;20049;-72
2021/10/06 12:26:48;;;;;;;5.78;0.60;;;;;;;;;;4857375;29;20105;-71
2021/10/06 12:29:15;;;;;;;2.00;0.45;;;;;;;;;;4874495;29;20045;-71
2021/10/06 12:31:43;;;;;;;3.72;0.57;;;;;;;;;;4873257;29;20105;-72
2021/10/06 12:34:12;;;;;;;1.77;0.40;;;;;;;;;;4872818;29;20113;-72
2021/10/06 12:36:53;;;;;;;2.70;0.50;;;;;;;;;;4873352;29;20557;-71
2021/10/06 12:39:25;;;;;;;1.58;0.43;;;;;;;;;;4859904;29;20075;-71
2021/10/06 12:41:54;;;;;;;5.03;1.50;;;;;;;;;;4855660;29;20463;-71
2021/10/06 12:44:27;;;;;;;1.48;0.35;;;;;;;;;;4873978;29;20045;-71
2021/10/06 12:46:57;;;;;;;3.55;0.32;;;;;;;;;;4853779;29;20053;-71
2021/10/06 12:49:27;;;;;;;4.65;0.50;;;;;;;;;;4862295;29;20044;-71
2021/10/06 12:51:55;;;;;;;3.80;0.40;;;;;;;;;;4859436;29;20034;-71
2021/10/06 12:54:23;;;;;;;1.85;0.50;;;;;;;;;;4861717;29;20045;-72
2021/10/06 12:56:53;;;;;;;2.90;0.88;;;;;;;;;;4874460;29;20546;-71
2021/10/06 12:59:28;;;;;;;1.27;0.30;;;;;;;;;;4876484;29;20084;-71
2021/10/06 13:01:56;;;;;;;1.55;0.30;;;;;;;;;;4876508;29;20045;-71
2021/10/06 13:04:23;;;;;;;1.30;0.30;;;;;;;;;;4874235;29;20045;-73
2021/10/06 13:06:52;;;;;;;1.02;0.35;;;;;;;;;;4876500;29;20100;-73
2021/10/06 13:09:20;;;;;;;2.63;0.30;;;;;;;;;;4859621;29;20434;-73
2021/10/06 13:11:48;;;;;;;0.55;0.30;;;;;;;;;;4856556;29;20037;-72
2021/10/06 13:14:16;;;;;;;0.50;0.20;;;;;;;;;;4849594;29;20056;-72
2021/10/06 13:16:44;;;;;;;0.88;0.25;;;;;;;;;;4862988;29;20044;-73
2021/10/06 13:19:12;;;;;;;1.48;0.40;;;;;;;;;;4875101;29;20148;-74
2021/10/06 13:21:40;;;;;;;0.50;0.20;;;;;;;;;;4855058;29;20069;-74
2021/10/06 13:24:08;;;;;;;1.20;0.22;;;;;;;;;;4852427;29;20542;-72
2021/10/06 13:26:36;;;;;;;1.30;0.30;;;;;;;;;;4856849;29;20048;-73
2021/10/06 13:29:04;;;;;;;2.28;0.28;;;;;;;;;;4857246;29;20037;-73
2021/10/06 13:31:32;;;;;;;1.70;0.30;;;;;;;;;;4870368;29;20603;-72
2021/10/06 13:34:00;;;;;;;1.48;0.20;;;;;;;;;;4858623;29;20049;-76
2021/10/06 13:36:27;;;;;;;2.25;0.80;;;;;;;;;;4857497;29;20045;-74
2021/10/06 13:38:54;;;;;;;2.35;0.30;;;;;;;;;;4867949;29;20046;-75
2021/10/06 13:41:22;;;;;;;3.17;0.40;;;;;;;;;;4867476;29;20109;-75
2021/10/06 13:43:49;;;;;;;0.85;0.30;;;;;;;;;;4862456;29;20106;-74
2021/10/06 13:46:18;;;;;;;2.20;0.30;;;;;;;;;;4839850;29;20061;-72
2021/10/06 13:48:50;;;;;;;1.05;0.32;;;;;;;;;;4853451;29;20079;-72
2021/10/06 13:51:18;;;;;;;3.08;0.50;;;;;;;;;;4853968;29;20042;-73
2021/10/06 13:53:46;;;;;;;1.65;0.63;;;;;;;;;;4861218;29;20077;-73
2021/10/06 13:56:14;;;;;;;3.50;0.40;;;;;;;;;;4852830;29;20061;-72
2021/10/06 13:58:42;;;;;;;2.80;0.63;;;;;;;;;;4859084;29;20041;-73
2021/10/06 14:01:10;;;;;;;2.75;0.50;;;;;;;;;;4855420;29;20097;-76
2021/10/06 14:03:37;;;;;;;2.08;0.40;;;;;;;;;;4853730;29;20113;-76
2021/10/06 14:06:05;;;;;;;2.97;0.50;;;;;;;;;;4859525;29;20038;-76
2021/10/06 14:08:33;;;;;;;4.85;0.68;;;;;;;;;;4858200;29;20049;-76
2021/10/06 14:11:01;;;;;;;1.90;0.40;;;;;;;;;;4859567;29;20098;-76
2021/10/06 14:13:28;;;;;;;2.08;0.40;;;;;;;;;;4858930;29;20128;-75
2021/10/06 14:15:57;;;;;;;2.17;0.40;;;;;;;;;;4854705;29;20536;-77
2021/10/06 14:18:24;;;;;;;2.92;0.60;;;;;;;;;;4861455;29;20107;-77
2021/10/06 14:20:52;;;;;;;5.03;0.63;;;;;;;;;;4880930;29;20071;-77
2021/10/06 14:23:20;;;;;;;4.43;1.00;;;;;;;;;;4859094;29;20518;-78
2021/10/06 14:25:49;;;;;;;5.63;0.75;;;;;;;;;;4859898;29;20040;-77
2021/10/06 14:28:17;;;;;;;4.40;0.50;;;;;;;;;;4873775;29;20037;-78
2021/10/06 14:30:45;;;;;;;5.38;0.68;;;;;;;;;;4868208;29;20041;-77
2021/10/06 14:33:15;;;;;;;2.47;0.60;;;;;;;;;;4859291;29;20591;-77
2021/10/06 14:35:43;;;;;;;5.28;0.40;;;;;;;;;;4879942;29;20113;-77
2021/10/06 14:38:10;;;;;;;4.47;1.08;;;;;;;;;;4880326;29;20055;-76
2021/10/06 14:40:38;;;;;;;2.10;0.50;;;;;;;;;;4880050;29;20163;-76
2021/10/06 14:43:05;;;;;;;4.53;0.47;;;;;;;;;;4863809;29;20052;-77
2021/10/06 14:45:32;;;;;;;4.13;0.32;;;;;;;;;;4879506;29;20168;-77
2021/10/06 14:48:00;;;;;;;1.23;0.30;;;;;;;;;;4864364;29;20041;-78
2021/10/06 14:50:29;;;;;;;2.28;0.40;;;;;;;;;;4864045;29;20041;-77
2021/10/06 14:52:57;;;;;;;2.20;0.40;;;;;;;;;;4863619;29;20037;-78